createdAt,value
2023-02-12T00:00:07.432Z,82.41
2023-02-12T00:01:22.266Z,82.56
2023-02-12T00:02:44.788Z,82.42
2023-02-12T00:03:48.887Z,82.42
2023-02-12T00:05:11.548Z,82.38
2023-02-12T00:06:33.079Z,82.30
2023-02-12T00:07:55.708Z,82.43
2023-02-12T00:09:18.158Z,82.40
2023-02-12T00:10:41.451Z,82.44
2023-02-12T00:12:04.500Z,82.30
2023-02-12T00:13:31.920Z,82.68
2023-02-12T00:14:54.402Z,82.55
2023-02-12T00:16:19.170Z,82.51
2023-02-12T00:17:41.910Z,82.67
2023-02-12T00:19:04.692Z,82.22
2023-02-12T00:20:26.234Z,82.38
2023-02-12T00:21:48.735Z,82.38
2023-02-12T00:23:10.577Z,82.34
2023-02-12T00:24:33.448Z,82.33
2023-02-12T00:25:55.250Z,82.42
2023-02-12T00:27:17.893Z,82.34
2023-02-12T00:28:40.992Z,82.34
2023-02-12T00:30:03.578Z,82.39
2023-02-12T00:34:01.765Z,82.26
2023-02-12T00:35:23.759Z,82.18
2023-02-12T00:36:47.450Z,82.29
2023-02-12T00:38:11.641Z,82.30
2023-02-12T00:39:36.458Z,82.43
2023-02-12T00:40:58.186Z,82.31
2023-02-12T00:42:21.164Z,82.27
2023-02-12T00:43:46.401Z,82.28
2023-02-12T00:45:10.225Z,82.17
2023-02-12T00:46:33.172Z,82.32
2023-02-12T00:47:55.865Z,82.25
2023-02-12T00:49:20.288Z,82.33
2023-02-12T00:50:45.104Z,82.46
2023-02-12T00:52:07.631Z,82.35
2023-02-12T00:53:29.727Z,82.12
2023-02-12T00:54:52.240Z,82.25
2023-02-12T00:56:13.833Z,82.27
2023-02-12T00:57:36.391Z,82.33
2023-02-12T00:59:00.250Z,82.15
2023-02-12T01:00:22.096Z,82.31
2023-02-12T01:04:26.643Z,82.24
2023-02-12T01:05:48.191Z,82.27
2023-02-12T01:07:11.024Z,82.23
2023-02-12T01:08:32.680Z,82.15
2023-02-12T01:09:55.192Z,82.48
2023-02-12T01:11:16.722Z,82.21
2023-02-12T01:12:39.220Z,82.17
2023-02-12T01:14:03.140Z,82.22
2023-02-12T01:15:24.847Z,82.17
2023-02-12T01:16:47.354Z,82.32
2023-02-12T01:18:09.121Z,82.21
2023-02-12T01:19:31.615Z,82.22
2023-02-12T01:20:53.118Z,82.27
2023-02-12T01:22:15.835Z,82.20
2023-02-12T01:23:37.390Z,82.29
2023-02-12T01:25:00.099Z,82.19
2023-02-12T01:26:22.878Z,82.30
2023-02-12T01:27:44.487Z,82.21
2023-02-12T01:29:08.804Z,82.28
2023-02-12T01:30:30.433Z,82.28
2023-02-12T01:31:53.516Z,82.36
2023-02-12T01:33:15.135Z,82.33
2023-02-12T01:34:37.802Z,82.37
2023-02-12T01:35:59.291Z,82.24
2023-02-12T01:37:21.786Z,82.25
2023-02-12T01:38:44.912Z,82.47
2023-02-12T01:40:09.160Z,82.33
2023-02-12T01:41:33.645Z,82.36
2023-02-12T01:42:55.168Z,82.38
2023-02-12T01:44:21.876Z,82.27
2023-02-12T01:45:50.161Z,82.24
2023-02-12T01:47:17.517Z,82.30
2023-02-12T01:48:43.689Z,82.22
2023-02-12T01:50:08.020Z,82.23
2023-02-12T01:51:30.920Z,82.13
2023-02-12T01:52:57.649Z,82.32
2023-02-12T01:57:32.156Z,82.33
2023-02-12T01:58:55.556Z,82.11
2023-02-12T02:00:22.743Z,82.39
2023-02-12T02:01:45.451Z,82.13
2023-02-12T02:03:07.449Z,82.35
2023-02-12T02:04:33.670Z,82.33
2023-02-12T02:06:00.609Z,82.48
2023-02-12T02:07:23.240Z,82.26
2023-02-12T02:08:45.888Z,82.20
2023-02-12T02:10:09.170Z,82.31
2023-02-12T02:11:49.120Z,82.10
2023-02-12T02:13:29.660Z,82.27
2023-02-12T02:14:55.618Z,82.40
2023-02-12T02:16:25.360Z,82.29
2023-02-12T02:17:54.376Z,82.13
2023-02-12T02:19:30.727Z,82.31
2023-02-12T02:21:30.450Z,82.30
2023-02-12T02:23:08.189Z,82.46
2023-02-12T02:25:03.536Z,82.33
2023-02-12T02:26:55.514Z,82.29
2023-02-12T02:28:43.589Z,82.43
2023-02-12T02:30:33.371Z,82.36
2023-02-12T02:34:49.624Z,82.18
2023-02-12T02:36:26.071Z,82.31
2023-02-12T02:37:54.816Z,82.50
2023-02-12T02:39:25.646Z,82.37
2023-02-12T02:40:52.921Z,82.48
2023-02-12T02:42:19.631Z,82.38
2023-02-12T02:43:44.298Z,82.29
2023-02-12T02:45:12.312Z,82.59
2023-02-12T02:46:41.573Z,82.59
2023-02-12T02:48:10.015Z,82.59
2023-02-12T02:49:36.478Z,82.44
2023-02-12T02:51:05.482Z,82.59
2023-02-12T02:52:34.963Z,82.57
2023-02-12T02:54:02.791Z,82.67
2023-02-12T02:55:31.570Z,82.66
2023-02-12T02:56:59.419Z,82.35
2023-02-12T02:58:26.654Z,82.45
2023-02-12T02:59:54.611Z,82.56
2023-02-12T03:01:20.008Z,82.35
2023-02-12T03:02:49.652Z,82.56
2023-02-12T03:04:15.147Z,82.47
2023-02-12T03:05:43.017Z,82.66
2023-02-12T03:07:09.744Z,82.22
2023-02-12T03:08:36.113Z,82.32
2023-02-12T03:10:02.906Z,82.48
2023-02-12T03:11:26.771Z,82.60
2023-02-12T03:12:54.865Z,82.55
2023-02-12T03:17:27.355Z,82.69
2023-02-12T03:18:56.695Z,82.57
2023-02-12T03:20:22.704Z,82.51
2023-02-12T03:21:49.964Z,82.51
2023-02-12T03:23:16.562Z,82.71
2023-02-12T03:24:44.151Z,82.52
2023-02-12T03:26:10.832Z,82.68
2023-02-12T03:27:34.838Z,82.17
2023-02-12T03:28:57.632Z,82.43
2023-02-12T03:30:21.888Z,82.46
2023-02-12T03:31:57.761Z,82.63
2023-02-12T03:33:25.591Z,82.38
2023-02-12T03:37:55.198Z,82.54
2023-02-12T03:39:07.073Z,82.51
2023-02-12T03:40:16.009Z,82.49
2023-02-12T03:41:24.765Z,82.68
2023-02-12T03:42:36.852Z,82.46
2023-02-12T03:43:50.118Z,82.64
2023-02-12T03:44:57.054Z,82.70
2023-02-12T03:46:04.211Z,82.65
2023-02-12T03:47:14.461Z,82.50
2023-02-12T03:48:22.778Z,82.58
2023-02-12T03:49:30.175Z,82.43
2023-02-12T03:50:41.978Z,82.46
2023-02-12T03:51:46.253Z,82.58
2023-02-12T03:52:50.808Z,82.47
2023-02-12T03:53:53.555Z,82.50
2023-02-12T03:54:56.726Z,82.37
2023-02-12T03:56:04.376Z,82.67
2023-02-12T03:57:09.639Z,82.29
2023-02-12T03:58:19.315Z,82.52
2023-02-12T03:59:22.583Z,82.46
2023-02-12T04:00:26.460Z,82.32
2023-02-12T04:01:28.734Z,82.50
2023-02-12T04:02:31.999Z,82.52
2023-02-12T04:03:34.535Z,82.38
2023-02-12T04:04:37.742Z,82.63
2023-02-12T04:05:50.289Z,82.53
2023-02-12T04:07:02.147Z,82.66
2023-02-12T04:08:13.326Z,82.55
2023-02-12T04:09:24.346Z,82.57
2023-02-12T04:10:33.404Z,82.69
2023-02-12T04:12:02.525Z,82.51
2023-02-12T04:13:16.230Z,82.45
2023-02-12T04:14:35.594Z,82.51
2023-02-12T04:15:53.737Z,82.40
2023-02-12T04:17:03.040Z,82.23
2023-02-12T04:18:10.817Z,82.52
2023-02-12T04:19:16.705Z,82.44
2023-02-12T04:20:31.737Z,82.40
2023-02-12T04:21:43.740Z,82.24
2023-02-12T04:22:55.145Z,82.23
2023-02-12T04:24:05.706Z,82.23
2023-02-12T04:25:18.400Z,82.27
2023-02-12T04:26:32.887Z,82.42
2023-02-12T04:27:45.165Z,82.30
2023-02-12T04:28:59.738Z,82.34
2023-02-12T04:30:08.367Z,82.30
2023-02-12T04:31:23.731Z,82.34
2023-02-12T04:32:33.963Z,82.24
2023-02-12T04:33:42.941Z,82.25
2023-02-12T04:34:53.420Z,82.32
2023-02-12T04:36:00.778Z,82.29
2023-02-12T04:37:06.735Z,82.36
2023-02-12T04:38:11.531Z,82.54
2023-02-12T04:39:20.102Z,82.42
2023-02-12T04:40:23.049Z,82.56
2023-02-12T04:41:37.013Z,82.34
2023-02-12T04:42:48.068Z,82.59
2023-02-12T04:44:14.634Z,82.68
2023-02-12T04:48:35.434Z,82.41
2023-02-12T04:49:36.974Z,82.28
2023-02-12T04:50:42.449Z,82.52
2023-02-12T04:51:44.627Z,82.29
2023-02-12T04:52:47.895Z,82.54
2023-02-12T04:53:50.523Z,82.60
2023-02-12T04:54:54.176Z,82.68
2023-02-12T04:56:05.142Z,82.60
2023-02-12T04:57:18.947Z,82.52
2023-02-12T04:58:20.517Z,82.49
2023-02-12T04:59:23.017Z,82.49
2023-02-12T05:00:34.613Z,82.49
2023-02-12T05:01:40.548Z,82.57
2023-02-12T05:02:42.319Z,82.76
2023-02-12T05:03:44.845Z,82.54
2023-02-12T05:04:46.424Z,82.64
2023-02-12T05:05:48.966Z,82.65
2023-02-12T05:06:53.543Z,82.70
2023-02-12T05:07:59.043Z,82.70
2023-02-12T05:09:00.656Z,82.58
2023-02-12T05:10:03.275Z,82.59
2023-02-12T05:11:06.232Z,82.61
2023-02-12T05:12:09.844Z,82.43
2023-02-12T05:13:12.685Z,82.54
2023-02-12T05:14:16.612Z,82.48
2023-02-12T05:15:18.223Z,82.68
2023-02-12T05:16:21.898Z,82.55
2023-02-12T05:17:27.111Z,82.64
2023-02-12T05:18:39.593Z,82.54
2023-02-12T05:19:41.598Z,82.63
2023-02-12T05:20:57.948Z,82.40
2023-02-12T05:21:59.601Z,82.60
2023-02-12T05:23:02.089Z,82.67
2023-02-12T05:24:03.944Z,82.40
2023-02-12T05:25:07.397Z,82.47
2023-02-12T05:26:21.096Z,82.53
2023-02-12T05:27:24.307Z,82.50
2023-02-12T05:28:27.650Z,82.49
2023-02-12T05:29:30.143Z,82.67
2023-02-12T05:30:31.697Z,82.46
2023-02-12T05:31:34.701Z,82.56
2023-02-12T05:32:36.476Z,82.22
2023-02-12T05:33:39.026Z,82.72
2023-02-12T05:34:40.645Z,82.36
2023-02-12T05:35:43.173Z,82.50
2023-02-12T05:36:44.787Z,82.51
2023-02-12T05:37:57.308Z,82.48
2023-02-12T05:39:08.865Z,82.60
2023-02-12T05:40:12.498Z,82.42
2023-02-12T05:41:16.386Z,82.49
2023-02-12T05:42:18.901Z,82.46
2023-02-12T05:43:20.403Z,82.55
2023-02-12T05:44:24.255Z,82.59
2023-02-12T05:45:27.871Z,82.40
2023-02-12T05:46:30.579Z,82.54
2023-02-12T05:47:32.194Z,82.40
2023-02-12T05:48:35.818Z,82.35
2023-02-12T05:49:38.293Z,82.33
2023-02-12T05:50:39.793Z,82.45
2023-02-12T05:51:42.869Z,82.13
2023-02-12T05:52:45.147Z,82.44
2023-02-12T05:53:59.981Z,82.51
2023-02-12T05:55:11.588Z,82.56
2023-02-12T05:56:16.300Z,82.49
2023-02-12T05:57:18.140Z,82.53
2023-02-12T05:58:30.634Z,82.49
2023-02-12T05:59:34.076Z,82.59
2023-02-12T06:00:36.690Z,82.66
2023-02-12T06:01:41.015Z,82.57
2023-02-12T06:02:43.546Z,82.55
2023-02-12T06:03:45.405Z,82.46
2023-02-12T06:04:48.726Z,82.39
2023-02-12T06:05:50.823Z,82.56
2023-02-12T06:07:02.398Z,82.50
2023-02-12T06:08:04.445Z,82.62
2023-02-12T06:09:07.555Z,82.59
2023-02-12T06:10:09.665Z,82.71
2023-02-12T06:11:14.399Z,82.60
2023-02-12T06:12:25.954Z,82.47
2023-02-12T06:13:34.343Z,82.37
2023-02-12T06:14:37.246Z,82.42
2023-02-12T06:15:49.772Z,82.48
2023-02-12T06:16:51.774Z,82.39
2023-02-12T06:17:54.364Z,82.15
2023-02-12T06:18:57.211Z,82.37
2023-02-12T06:19:59.759Z,82.31
2023-02-12T06:21:03.151Z,82.37
2023-02-12T06:22:10.580Z,82.26
2023-02-12T06:23:14.703Z,82.19
2023-02-12T06:24:18.247Z,82.25
2023-02-12T06:25:19.818Z,82.43
2023-02-12T06:26:23.594Z,82.28
2023-02-12T06:27:25.199Z,82.32
2023-02-12T06:28:37.840Z,82.37
2023-02-12T06:29:40.872Z,82.21
2023-02-12T06:30:53.602Z,82.32
2023-02-12T06:31:56.560Z,82.13
2023-02-12T06:32:59.282Z,82.18
2023-02-12T06:34:03.268Z,82.10
2023-02-12T06:35:06.467Z,82.24
2023-02-12T06:36:18.763Z,82.28
2023-02-12T06:37:32.540Z,82.08
2023-02-12T06:38:34.893Z,82.25
2023-02-12T06:39:37.408Z,82.23
2023-02-12T06:40:38.945Z,82.29
2023-02-12T06:41:42.010Z,82.24
2023-02-12T06:42:43.533Z,82.20
2023-02-12T06:43:46.039Z,82.12
2023-02-12T06:44:51.918Z,82.27
2023-02-12T06:45:56.141Z,82.18
2023-02-12T06:47:08.892Z,82.12
2023-02-12T06:48:11.164Z,82.02
2023-02-12T06:49:14.485Z,82.13
2023-02-12T06:50:16.922Z,82.00
2023-02-12T06:51:21.710Z,82.05
2023-02-12T06:52:23.299Z,82.22
2023-02-12T06:53:25.807Z,81.96
2023-02-12T06:54:27.325Z,82.17
2023-02-12T06:55:29.825Z,82.03
2023-02-12T06:56:31.506Z,82.14
2023-02-12T06:57:34.087Z,81.94
2023-02-12T06:58:35.654Z,82.06
2023-02-12T06:59:38.163Z,82.00
2023-02-12T07:00:41.707Z,82.02
2023-02-12T07:01:44.934Z,82.21
2023-02-12T07:02:53.871Z,82.03
2023-02-12T07:03:59.779Z,82.04
2023-02-12T07:05:12.505Z,82.04
2023-02-12T07:06:14.203Z,81.98
2023-02-12T07:07:16.744Z,82.30
2023-02-12T07:08:18.355Z,82.15
2023-02-12T07:09:20.868Z,82.10
2023-02-12T07:10:23.408Z,81.97
2023-02-12T07:11:38.520Z,82.02
2023-02-12T07:12:51.223Z,82.19
2023-02-12T07:13:57.789Z,82.03
2023-02-12T07:14:59.474Z,82.10
2023-02-12T07:16:06.792Z,81.99
2023-02-12T07:17:09.913Z,82.16
2023-02-12T07:18:12.565Z,82.04
2023-02-12T07:19:14.099Z,81.91
2023-02-12T07:20:16.830Z,81.92
2023-02-12T07:21:19.318Z,82.09
2023-02-12T07:22:31.852Z,81.95
2023-02-12T07:23:49.160Z,82.17
2023-02-12T07:25:01.764Z,81.97
2023-02-12T07:26:13.705Z,82.23
2023-02-12T07:27:17.258Z,81.98
2023-02-12T07:28:18.858Z,82.02
2023-02-12T07:29:21.412Z,81.95
2023-02-12T07:30:23.237Z,81.93
2023-02-12T07:31:27.217Z,82.17
2023-02-12T07:32:28.853Z,81.95
2023-02-12T07:33:31.344Z,82.06
2023-02-12T07:34:33.165Z,81.86
2023-02-12T07:35:35.761Z,82.00
2023-02-12T07:36:48.269Z,81.93
2023-02-12T07:38:00.754Z,81.75
2023-02-12T07:39:02.808Z,81.76
2023-02-12T07:40:11.548Z,81.76
2023-02-12T07:41:15.074Z,81.86
2023-02-12T07:42:17.868Z,81.76
2023-02-12T07:43:19.408Z,81.74
2023-02-12T07:44:21.918Z,81.79
2023-02-12T07:45:24.329Z,81.70
2023-02-12T07:46:30.569Z,81.57
2023-02-12T07:47:33.153Z,81.78
2023-02-12T07:48:34.746Z,81.69
2023-02-12T07:49:37.336Z,81.99
2023-02-12T07:50:39.969Z,81.74
2023-02-12T07:51:42.200Z,81.68
2023-02-12T07:52:45.492Z,81.72
2023-02-12T07:53:55.668Z,81.65
2023-02-12T07:54:58.413Z,81.72
2023-02-12T07:56:10.655Z,81.62
2023-02-12T07:57:13.141Z,81.69
2023-02-12T07:58:14.918Z,81.70
2023-02-12T07:59:19.672Z,81.65
2023-02-12T08:00:21.813Z,81.68
2023-02-12T08:01:29.676Z,81.80
2023-02-12T08:02:32.214Z,81.67
2023-02-12T08:03:33.870Z,81.73
2023-02-12T08:04:36.838Z,81.63
2023-02-12T08:05:48.370Z,81.69
2023-02-12T08:07:00.922Z,81.58
2023-02-12T08:08:02.526Z,81.50
2023-02-12T08:09:11.756Z,81.64
2023-02-12T08:10:13.277Z,81.40
2023-02-12T08:11:16.614Z,81.18
2023-02-12T08:12:18.659Z,81.36
2023-02-12T08:13:21.339Z,81.39
2023-02-12T08:14:24.528Z,81.06
2023-02-12T08:15:26.132Z,81.36
2023-02-12T08:16:31.686Z,81.30
2023-02-12T08:17:34.492Z,81.16
2023-02-12T08:18:37.348Z,81.29
2023-02-12T08:19:40.433Z,81.17
2023-02-12T08:20:41.966Z,81.07
2023-02-12T08:21:44.908Z,81.19
2023-02-12T08:22:58.108Z,81.11
2023-02-12T08:24:00.208Z,81.20
2023-02-12T08:25:02.749Z,81.16
2023-02-12T08:26:06.304Z,81.11
2023-02-12T08:27:08.875Z,81.22
2023-02-12T08:28:10.515Z,81.17
2023-02-12T08:29:15.921Z,81.29
2023-02-12T08:30:28.413Z,81.07
2023-02-12T08:31:34.672Z,80.99
2023-02-12T08:32:50.085Z,80.97
2023-02-12T08:33:54.486Z,80.95
2023-02-12T08:34:57.345Z,81.21
2023-02-12T08:36:03.948Z,80.95
2023-02-12T08:37:07.714Z,80.93
2023-02-12T08:38:09.315Z,80.96
2023-02-12T08:39:12.122Z,80.79
2023-02-12T08:40:13.837Z,80.73
2023-02-12T08:41:20.604Z,80.79
2023-02-12T08:42:25.589Z,80.74
2023-02-12T08:43:28.353Z,80.71
2023-02-12T08:44:31.280Z,80.60
2023-02-12T08:45:33.694Z,80.57
2023-02-12T08:46:40.030Z,80.41
2023-02-12T08:47:42.770Z,80.50
2023-02-12T08:48:45.263Z,80.76
2023-02-12T08:49:47.865Z,80.42
2023-02-12T08:50:49.466Z,80.30
2023-02-12T08:51:53.889Z,80.24
2023-02-12T08:52:56.397Z,80.21
2023-02-12T08:54:00.508Z,80.45
2023-02-12T08:55:03.052Z,79.99
2023-02-12T08:56:05.548Z,79.93
2023-02-12T08:57:09.793Z,79.91
2023-02-12T08:58:21.353Z,79.88
2023-02-12T08:59:25.796Z,79.70
2023-02-12T09:00:33.879Z,79.63
2023-02-12T09:01:41.916Z,79.87
2023-02-12T09:02:43.631Z,79.43
2023-02-12T09:03:47.145Z,79.46
2023-02-12T09:04:49.739Z,79.38
2023-02-12T09:05:51.483Z,79.37
2023-02-12T09:06:55.161Z,79.31
2023-02-12T09:08:06.819Z,79.03
2023-02-12T09:09:20.595Z,79.06
2023-02-12T09:10:32.150Z,78.88
2023-02-12T09:11:45.150Z,78.81
2023-02-12T09:12:48.318Z,78.52
2023-02-12T09:13:51.650Z,78.59
2023-02-12T09:14:54.372Z,78.60
2023-02-12T09:15:56.254Z,78.24
2023-02-12T09:17:00.310Z,78.24
2023-02-12T09:18:03.955Z,78.03
2023-02-12T09:19:06.840Z,77.69
2023-02-12T09:20:11.974Z,77.85
2023-02-12T09:21:24.770Z,77.57
2023-02-12T09:22:26.409Z,77.76
2023-02-12T09:23:37.406Z,77.52
2023-02-12T09:24:49.976Z,77.38
2023-02-12T09:26:05.560Z,77.28
2023-02-12T09:27:14.403Z,77.20
2023-02-12T09:28:16.034Z,76.88
2023-02-12T09:29:18.527Z,76.75
2023-02-12T09:30:20.175Z,76.61
2023-02-12T09:31:32.527Z,76.46
2023-02-12T09:32:35.558Z,76.43
2023-02-12T09:33:38.097Z,76.02
2023-02-12T09:34:41.492Z,75.95
2023-02-12T09:35:44.320Z,75.64
2023-02-12T09:36:56.788Z,75.75
2023-02-12T09:38:09.950Z,75.48
2023-02-12T09:39:22.504Z,75.46
2023-02-12T09:40:34.871Z,75.32
2023-02-12T09:42:03.984Z,75.11
2023-02-12T09:43:17.875Z,75.04
2023-02-12T09:44:27.936Z,74.96
2023-02-12T09:45:35.789Z,74.91
2023-02-12T09:46:46.327Z,74.63
2023-02-12T09:47:57.783Z,74.99
2023-02-12T09:49:09.808Z,74.51
2023-02-12T09:50:37.267Z,74.76
2023-02-12T09:51:53.855Z,74.72
2023-02-12T09:52:58.956Z,74.68
2023-02-12T09:54:04.758Z,74.38
2023-02-12T09:55:11.907Z,74.54
2023-02-12T09:56:14.922Z,74.44
2023-02-12T09:57:23.874Z,74.29
2023-02-12T09:58:33.763Z,74.20
2023-02-12T09:59:41.312Z,74.00
2023-02-12T10:00:44.582Z,73.94
2023-02-12T10:01:46.205Z,73.90
2023-02-12T10:02:53.163Z,73.51
2023-02-12T10:04:06.200Z,73.51
2023-02-12T10:05:18.708Z,72.91
2023-02-12T10:06:23.709Z,72.75
2023-02-12T10:07:38.830Z,72.37
2023-02-12T10:08:58.628Z,72.23
2023-02-12T10:10:20.675Z,72.18
2023-02-12T10:11:39.618Z,72.43
2023-02-12T10:12:51.110Z,72.76
2023-02-12T10:14:02.828Z,72.71
2023-02-12T10:15:26.637Z,72.57
2023-02-12T10:16:52.272Z,73.06
2023-02-12T10:18:05.642Z,73.11
2023-02-12T10:19:23.814Z,73.08
2023-02-12T10:21:03.093Z,73.35
2023-02-12T10:22:13.666Z,73.17
2023-02-12T10:23:27.451Z,73.75
2023-02-12T10:24:58.601Z,73.42
2023-02-12T10:26:07.658Z,73.54
2023-02-12T10:27:15.351Z,73.41
2023-02-12T10:28:21.455Z,73.35
2023-02-12T10:29:25.885Z,73.67
2023-02-12T10:30:36.664Z,73.59
2023-02-12T10:31:53.506Z,73.32
2023-02-12T10:37:50.493Z,73.52
2023-02-12T10:38:58.892Z,73.55
2023-02-12T10:40:05.795Z,73.63
2023-02-12T10:41:07.802Z,73.63
2023-02-12T10:42:13.852Z,73.66
2023-02-12T10:43:15.797Z,73.89
2023-02-12T10:44:18.726Z,73.66
2023-02-12T10:45:23.919Z,73.71
2023-02-12T10:46:36.472Z,73.73
2023-02-12T10:47:47.321Z,73.70
2023-02-12T10:48:54.835Z,73.60
2023-02-12T10:49:58.540Z,73.68
2023-02-12T10:51:18.171Z,73.52
2023-02-12T10:52:35.010Z,73.72
2023-02-12T10:53:41.241Z,73.38
2023-02-12T10:54:44.482Z,73.41
2023-02-12T10:55:47.077Z,73.36
2023-02-12T10:56:49.291Z,73.37
2023-02-12T10:57:52.012Z,73.23
2023-02-12T10:58:59.225Z,73.17
2023-02-12T11:00:22.716Z,73.31
2023-02-12T11:01:39.347Z,73.01
2023-02-12T11:03:01.209Z,73.08
2023-02-12T11:04:21.461Z,73.13
2023-02-12T11:05:26.681Z,73.19
2023-02-12T11:06:31.769Z,73.03
2023-02-12T11:07:48.879Z,73.04
2023-02-12T11:08:52.579Z,73.10
2023-02-12T11:09:57.226Z,72.85
2023-02-12T11:11:12.906Z,72.63
2023-02-12T11:12:20.345Z,72.76
2023-02-12T11:13:26.017Z,72.46
2023-02-12T11:14:38.410Z,72.50
2023-02-12T11:15:51.306Z,72.26
2023-02-12T11:17:03.975Z,72.32
2023-02-12T11:18:08.671Z,72.39
2023-02-12T11:19:25.303Z,72.32
2023-02-12T11:20:30.379Z,72.21
2023-02-12T11:21:32.921Z,72.30
2023-02-12T11:22:35.509Z,72.22
2023-02-12T11:23:39.775Z,72.28
2023-02-12T11:24:42.660Z,72.15
2023-02-12T11:25:58.872Z,72.26
2023-02-12T11:27:14.482Z,71.94
2023-02-12T11:28:19.173Z,72.22
2023-02-12T11:29:24.544Z,71.73
2023-02-12T11:30:27.696Z,71.67
2023-02-12T11:31:36.816Z,71.51
2023-02-12T11:32:49.354Z,71.89
2023-02-12T11:34:10.547Z,71.32
2023-02-12T11:38:25.606Z,71.15
2023-02-12T11:39:32.246Z,71.58
2023-02-12T11:40:36.138Z,71.53
2023-02-12T11:41:41.505Z,71.40
2023-02-12T11:42:49.125Z,71.30
2023-02-12T11:43:53.002Z,71.45
2023-02-12T11:44:57.207Z,71.56
2023-02-12T11:46:01.622Z,71.57
2023-02-12T11:47:22.062Z,71.39
2023-02-12T11:48:27.081Z,71.36
2023-02-12T11:49:32.771Z,71.48
2023-02-12T11:50:35.315Z,71.39
2023-02-12T11:51:38.765Z,71.31
2023-02-12T11:52:52.257Z,71.27
2023-02-12T11:53:57.606Z,71.33
2023-02-12T11:55:02.668Z,71.15
2023-02-12T11:56:09.449Z,71.07
2023-02-12T11:57:36.401Z,71.00
2023-02-12T11:58:39.575Z,71.03
2023-02-12T11:59:49.020Z,71.10
2023-02-12T12:00:57.560Z,70.95
2023-02-12T12:02:05.442Z,70.78
2023-02-12T12:03:13.780Z,70.73
2023-02-12T12:04:21.669Z,70.77
2023-02-12T12:05:38.112Z,70.62
2023-02-12T12:06:54.436Z,70.72
2023-02-12T12:07:59.795Z,70.65
2023-02-12T12:09:08.117Z,70.62
2023-02-12T12:10:17.319Z,70.39
2023-02-12T12:11:26.294Z,70.45
2023-02-12T12:12:39.684Z,70.34
2023-02-12T12:13:49.229Z,70.42
2023-02-12T12:15:13.770Z,70.12
2023-02-12T12:16:42.642Z,69.99
2023-02-12T12:18:09.062Z,69.88
2023-02-12T12:19:34.401Z,69.77
2023-02-12T12:20:42.170Z,69.73
2023-02-12T12:21:52.890Z,69.42
2023-02-12T12:23:00.743Z,69.20
2023-02-12T12:24:10.082Z,69.06
2023-02-12T12:25:23.666Z,68.83
2023-02-12T12:26:29.852Z,68.64
2023-02-12T12:27:57.426Z,68.50
2023-02-12T12:29:06.530Z,68.17
2023-02-12T12:30:25.437Z,67.98
2023-02-12T12:31:34.138Z,68.23
2023-02-12T12:32:40.988Z,68.19
2023-02-12T12:33:57.532Z,67.94
2023-02-12T12:34:59.272Z,67.64
2023-02-12T12:36:24.330Z,67.73
2023-02-12T12:37:37.761Z,67.57
2023-02-12T12:38:58.220Z,67.47
2023-02-12T12:40:17.227Z,67.62
2023-02-12T12:41:27.807Z,67.36
2023-02-12T12:42:56.690Z,67.07
2023-02-12T12:44:16.316Z,66.97
2023-02-12T12:45:36.747Z,66.92
2023-02-12T12:46:58.425Z,67.00
2023-02-12T12:48:18.798Z,66.64
2023-02-12T12:49:35.406Z,67.22
2023-02-12T12:51:02.315Z,66.75
2023-02-12T12:52:27.894Z,66.56
2023-02-12T12:53:47.670Z,66.64
2023-02-12T12:55:03.460Z,66.47
2023-02-12T12:56:23.287Z,66.22
2023-02-12T12:57:44.183Z,66.38
2023-02-12T12:59:24.046Z,66.40
2023-02-12T13:00:38.197Z,66.39
2023-02-12T13:02:02.893Z,66.45
2023-02-12T13:03:41.442Z,66.11
2023-02-12T13:05:19.002Z,66.28
2023-02-12T13:06:42.324Z,66.14
2023-02-12T13:07:54.718Z,66.09
2023-02-12T13:09:12.224Z,66.00
2023-02-12T13:10:25.078Z,65.74
2023-02-12T13:11:40.767Z,65.91
2023-02-12T13:12:57.316Z,65.57
2023-02-12T13:14:09.892Z,65.65
2023-02-12T13:15:22.621Z,65.75
2023-02-12T13:16:31.210Z,65.83
2023-02-12T13:17:41.273Z,65.89
2023-02-12T13:18:56.882Z,65.60
2023-02-12T13:20:06.563Z,65.78
2023-02-12T13:21:17.018Z,65.47
2023-02-12T13:22:26.434Z,65.52
2023-02-12T13:23:40.277Z,65.33
2023-02-12T13:24:48.934Z,65.47
2023-02-12T13:26:02.582Z,65.13
2023-02-12T13:27:09.363Z,65.58
2023-02-12T13:28:20.045Z,65.49
2023-02-12T13:29:28.755Z,64.86
2023-02-12T13:30:39.291Z,65.37
2023-02-12T13:31:49.037Z,65.09
2023-02-12T13:33:02.848Z,65.09
2023-02-12T13:34:13.375Z,65.13
2023-02-12T13:35:18.576Z,64.99
2023-02-12T13:36:21.207Z,64.89
2023-02-12T13:37:32.926Z,64.86
2023-02-12T13:38:40.289Z,64.82
2023-02-12T13:39:47.978Z,64.74
2023-02-12T13:40:51.639Z,64.92
2023-02-12T13:42:04.268Z,64.82
2023-02-12T13:43:14.691Z,64.75
2023-02-12T13:44:28.758Z,64.40
2023-02-12T13:45:41.731Z,64.83
2023-02-12T13:46:53.366Z,64.87
2023-02-12T13:52:46.772Z,65.05
2023-02-12T13:54:03.501Z,65.06
2023-02-12T13:55:22.345Z,65.28
2023-02-12T13:56:33.887Z,65.29
2023-02-12T13:57:36.419Z,65.43
2023-02-12T13:58:51.053Z,65.34
2023-02-12T13:59:58.015Z,65.49
2023-02-12T14:01:01.266Z,65.54
2023-02-12T14:02:05.628Z,65.56
2023-02-12T14:03:10.072Z,65.28
2023-02-12T14:04:22.016Z,65.43
2023-02-12T14:05:29.579Z,65.53
2023-02-12T14:06:34.854Z,65.69
2023-02-12T14:07:46.424Z,65.61
2023-02-12T14:08:52.387Z,65.71
2023-02-12T14:10:06.585Z,65.62
2023-02-12T14:11:10.594Z,65.82
2023-02-12T14:12:16.456Z,65.33
2023-02-12T14:13:23.085Z,65.48
2023-02-12T14:14:27.695Z,65.52
2023-02-12T14:15:37.430Z,65.81
2023-02-12T14:16:40.911Z,65.57
2023-02-12T14:17:55.963Z,65.65
2023-02-12T14:19:37.425Z,65.71
2023-02-12T14:20:40.067Z,65.67
2023-02-12T14:21:45.563Z,65.64
2023-02-12T14:23:19.103Z,65.57
2023-02-12T14:24:53.008Z,65.57
2023-02-12T14:28:24.016Z,65.83
2023-02-12T14:29:27.366Z,65.92
2023-02-12T14:30:39.903Z,65.80
2023-02-12T14:31:43.149Z,65.87
2023-02-12T14:33:09.175Z,65.95
2023-02-12T14:34:48.225Z,65.68
2023-02-12T14:36:16.906Z,65.63
2023-02-12T14:37:38.955Z,65.62
2023-02-12T14:39:04.557Z,65.98
2023-02-12T14:40:40.387Z,66.11
2023-02-12T14:41:44.081Z,66.07
2023-02-12T14:42:55.762Z,65.99
2023-02-12T14:44:43.272Z,65.74
2023-02-12T14:45:45.840Z,66.06
2023-02-12T14:46:49.130Z,65.98
2023-02-12T14:47:53.234Z,66.23
2023-02-12T14:48:58.394Z,66.16
2023-02-12T14:50:02.683Z,65.86
2023-02-12T14:51:06.828Z,66.14
2023-02-12T14:52:16.831Z,66.11
2023-02-12T14:53:27.416Z,66.05
2023-02-12T14:54:35.390Z,65.97
2023-02-12T14:55:40.058Z,66.08
2023-02-12T14:56:48.232Z,65.92
2023-02-12T14:57:50.967Z,66.13
2023-02-12T14:58:57.953Z,66.18
2023-02-12T15:00:04.098Z,66.22
2023-02-12T15:01:08.509Z,66.18
2023-02-12T15:02:19.331Z,66.20
2023-02-12T15:03:28.387Z,66.09
2023-02-12T15:04:34.394Z,66.00
2023-02-12T15:05:41.105Z,66.24
2023-02-12T15:06:50.622Z,66.24
2023-02-12T15:07:56.128Z,66.38
2023-02-12T15:09:03.932Z,66.06
2023-02-12T15:10:12.859Z,66.19
2023-02-12T15:11:29.397Z,65.92
2023-02-12T15:12:36.582Z,66.20
2023-02-12T15:13:48.951Z,66.09
2023-02-12T15:14:59.085Z,65.83
2023-02-12T15:16:22.322Z,65.99
2023-02-12T15:17:30.538Z,66.12
2023-02-12T15:18:46.593Z,66.07
2023-02-12T15:19:55.794Z,66.28
2023-02-12T15:21:02.534Z,66.31
2023-02-12T15:22:05.152Z,66.20
2023-02-12T15:23:37.855Z,66.18
2023-02-12T15:24:40.386Z,66.49
2023-02-12T15:25:42.962Z,66.20
2023-02-12T15:29:23.094Z,66.59
2023-02-12T15:30:28.901Z,66.38
2023-02-12T15:31:33.253Z,66.39
2023-02-12T15:32:39.293Z,66.30
2023-02-12T15:33:47.285Z,66.61
2023-02-12T15:34:51.802Z,66.61
2023-02-12T15:35:53.976Z,66.38
2023-02-12T15:36:59.397Z,66.42
2023-02-12T15:38:01.859Z,66.61
2023-02-12T15:39:09.231Z,66.71
2023-02-12T15:40:16.458Z,66.73
2023-02-12T15:41:29.210Z,66.83
2023-02-12T15:42:33.894Z,66.67
2023-02-12T15:43:40.408Z,66.68
2023-02-12T15:44:44.481Z,66.68
2023-02-12T15:45:52.975Z,66.85
2023-02-12T15:46:57.339Z,66.92
2023-02-12T15:48:13.219Z,66.40
2023-02-12T15:49:22.171Z,66.90
2023-02-12T15:50:24.353Z,66.99
2023-02-12T15:51:34.709Z,66.72
2023-02-12T15:52:40.388Z,66.91
2023-02-12T15:53:44.176Z,67.00
2023-02-12T15:54:49.456Z,66.85
2023-02-12T15:55:51.991Z,66.93
2023-02-12T15:56:55.252Z,66.93
2023-02-12T15:58:00.248Z,66.90
2023-02-12T15:59:04.358Z,67.03
2023-02-12T16:00:11.944Z,66.75